createdAt,value
2019-05-06T00:02:57.395Z,6.47
2019-05-06T00:07:59.164Z,6.47
2019-05-06T00:13:00.698Z,7.17
2019-05-06T00:18:04.244Z,6.47
2019-05-06T00:23:16.295Z,7.67
2019-05-06T00:28:25.172Z,7.60
2019-05-06T00:33:26.550Z,6.70
2019-05-06T00:38:29.386Z,6.53
2019-05-06T00:43:34.524Z,6.72
2019-05-06T00:48:35.872Z,7.72
2019-05-06T00:53:39.074Z,7.97
2019-05-06T00:58:40.434Z,7.67
2019-05-06T01:03:41.723Z,8.68
2019-05-06T01:08:44.023Z,9.40
2019-05-06T01:13:47.372Z,9.18
2019-05-06T01:18:48.642Z,9.20
2019-05-06T01:23:49.931Z,12.03
2019-05-06T01:28:51.208Z,12.53
2019-05-06T01:33:53.535Z,13.00
2019-05-06T01:39:00.008Z,13.53
2019-05-06T01:44:01.280Z,22.58
2019-05-06T01:49:05.640Z,25.65
2019-05-06T01:54:08.291Z,60.23
2019-05-06T01:59:09.607Z,13.68
2019-05-06T02:04:11.073Z,13.38
2019-05-06T02:09:14.941Z,12.43
2019-05-06T02:14:17.637Z,10.90
2019-05-06T02:19:19.010Z,10.58
2019-05-06T02:24:25.107Z,10.48
2019-05-06T02:29:28.690Z,10.25
2019-05-06T02:34:37.801Z,11.05
2019-05-06T02:39:43.572Z,11.45
2019-05-06T02:44:44.556Z,10.23
2019-05-06T02:49:53.269Z,9.43
2019-05-06T02:54:53.923Z,10.53
2019-05-06T02:59:55.898Z,10.80
2019-05-06T03:05:00.061Z,10.48
2019-05-06T03:10:14.470Z,11.38
2019-05-06T03:15:16.841Z,11.10
2019-05-06T03:20:56.766Z,11.97
2019-05-06T03:25:58.047Z,11.50
2019-05-06T03:31:07.557Z,10.75
2019-05-06T03:36:21.316Z,10.35
2019-05-06T03:41:13.936Z,10.68
2019-05-06T03:46:19.233Z,10.25
2019-05-06T03:51:23.353Z,11.30
2019-05-06T03:56:26.127Z,9.00
2019-05-06T04:01:28.100Z,10.38
2019-05-06T04:06:33.263Z,10.80
2019-05-06T04:11:37.014Z,10.45
2019-05-06T04:16:43.751Z,10.63
2019-05-06T04:21:47.489Z,10.08
2019-05-06T04:27:02.853Z,9.55
2019-05-06T04:32:09.011Z,9.98
2019-05-06T04:37:14.434Z,10.05
2019-05-06T04:42:15.657Z,10.08
2019-05-06T04:47:16.902Z,10.40
2019-05-06T04:52:22.800Z,10.20
2019-05-06T04:57:27.023Z,10.13
2019-05-06T05:02:28.312Z,10.45
2019-05-06T05:07:33.391Z,10.03
2019-05-06T05:12:39.881Z,10.60
2019-05-06T05:17:52.571Z,10.25
2019-05-06T05:22:56.594Z,10.40
2019-05-06T05:27:57.950Z,10.48
2019-05-06T05:33:02.599Z,10.40
2019-05-06T05:38:05.838Z,10.30
2019-05-06T05:43:09.387Z,10.28
2019-05-06T05:48:23.376Z,11.03
2019-05-06T05:53:26.769Z,10.72
2019-05-06T05:58:30.134Z,9.80
2019-05-06T06:03:32.527Z,10.38
2019-05-06T06:08:36.846Z,10.65
2019-05-06T06:13:39.399Z,10.08
2019-05-06T06:18:55.057Z,10.40
2019-05-06T06:24:13.780Z,11.63
2019-05-06T06:29:15.725Z,9.35
2019-05-06T06:34:19.419Z,11.12
2019-05-06T06:39:22.922Z,10.38
2019-05-06T06:44:33.117Z,10.08
2019-05-06T06:49:36.755Z,10.58
2019-05-06T06:54:45.033Z,10.55
2019-05-06T06:59:52.231Z,10.85
2019-05-06T07:05:02.801Z,10.13
2019-05-06T07:10:05.618Z,9.63
2019-05-06T07:15:07.094Z,10.13
2019-05-06T07:20:10.619Z,9.85
2019-05-06T07:25:12.820Z,8.58
2019-05-06T07:30:14.703Z,5.92
2019-05-06T07:35:16.103Z,4.10
2019-05-06T07:40:22.114Z,4.17
2019-05-06T07:45:28.488Z,3.98
2019-05-06T07:50:29.850Z,4.50
2019-05-06T07:55:32.741Z,4.00
2019-05-06T08:00:36.604Z,4.25
2019-05-06T08:05:51.571Z,4.95
2019-05-06T08:10:44.132Z,5.03
2019-05-06T08:15:45.626Z,7.12
2019-05-06T08:20:48.207Z,9.00
2019-05-06T08:25:54.367Z,10.10
2019-05-06T08:30:54.674Z,11.48
2019-05-06T08:36:08.946Z,12.80
2019-05-06T08:41:02.726Z,13.13
2019-05-06T08:46:04.271Z,13.65
2019-05-06T08:51:09.188Z,14.10
2019-05-06T08:56:16.489Z,14.10
2019-05-06T09:01:22.425Z,13.22
2019-05-06T09:06:30.162Z,14.20
2019-05-06T09:11:32.211Z,13.75
2019-05-06T09:16:36.352Z,14.58
2019-05-06T09:21:37.959Z,14.75
2019-05-06T09:26:43.270Z,15.13
2019-05-06T09:31:49.193Z,16.42
2019-05-06T09:37:09.042Z,15.63
2019-05-06T09:42:12.849Z,19.12
2019-05-06T09:47:23.010Z,19.45
2019-05-06T09:52:24.577Z,18.65
2019-05-06T09:57:29.882Z,16.62
2019-05-06T10:02:32.569Z,15.78
2019-05-06T10:07:35.176Z,15.83
2019-05-06T10:12:38.475Z,14.90
2019-05-06T10:17:42.743Z,14.45
2019-05-06T10:22:43.698Z,13.32
2019-05-06T10:27:47.320Z,13.95
2019-05-06T10:33:12.083Z,15.30
2019-05-06T10:38:38.598Z,16.23
2019-05-06T10:43:52.552Z,15.68
2019-05-06T10:48:56.124Z,16.05
2019-05-06T10:53:57.427Z,15.68
2019-05-06T10:59:02.465Z,18.57
2019-05-06T11:04:04.127Z,16.55
2019-05-06T11:09:08.596Z,18.75
2019-05-06T11:14:13.831Z,18.85
2019-05-06T11:19:15.153Z,18.67
2019-05-06T11:24:16.561Z,20.85
2019-05-06T11:29:19.759Z,22.48
2019-05-06T11:34:22.934Z,20.30
2019-05-06T11:39:24.394Z,21.20
2019-05-06T11:44:27.672Z,11.53
2019-05-06T11:49:29.050Z,9.55
2019-05-06T11:54:30.487Z,10.13
2019-05-06T11:59:32.453Z,10.18
2019-05-06T12:04:34.062Z,12.68
2019-05-06T12:09:37.069Z,34.80
2019-05-06T12:14:38.503Z,25.30
2019-05-06T12:19:39.862Z,23.73
2019-05-06T12:24:43.085Z,27.70
2019-05-06T12:29:44.580Z,22.85
2019-05-06T12:34:46.044Z,21.20
2019-05-06T12:39:49.261Z,20.68
2019-05-06T12:44:52.940Z,18.92
2019-05-06T12:49:54.451Z,19.40
2019-05-06T12:55:14.742Z,20.88
2019-05-06T12:59:59.816Z,18.65
2019-05-06T13:05:04.037Z,17.17
2019-05-06T13:10:06.509Z,17.15
2019-05-06T13:15:08.356Z,15.63
2019-05-06T13:20:14.463Z,16.67
2019-05-06T13:25:14.351Z,17.55
2019-05-06T13:30:17.736Z,15.60
2019-05-06T13:35:23.145Z,16.80
2019-05-06T13:40:27.128Z,16.05
2019-05-06T13:45:27.944Z,15.23
2019-05-06T13:50:32.277Z,16.12
2019-05-06T13:55:33.621Z,15.80
2019-05-06T14:00:37.258Z,16.17
2019-05-06T14:05:38.558Z,14.13
2019-05-06T14:10:42.138Z,12.58
2019-05-06T14:15:44.243Z,9.83
2019-05-06T14:20:47.821Z,9.93
2019-05-06T14:26:07.708Z,10.85
2019-05-06T14:31:14.020Z,11.68
2019-05-06T14:41:17.552Z,11.93
2019-05-06T14:46:19.058Z,10.78
2019-05-06T14:51:22.253Z,9.28
2019-05-06T14:56:39.442Z,11.90
2019-05-06T15:01:53.679Z,13.05
2019-05-06T15:06:56.201Z,10.75
2019-05-06T15:11:57.474Z,10.50
2019-05-06T15:17:02.203Z,10.03
2019-05-06T15:22:03.980Z,10.53
2019-05-06T15:27:07.695Z,8.65
2019-05-06T15:32:12.992Z,8.78
2019-05-06T15:37:47.069Z,9.18
2019-05-06T15:42:48.382Z,6.30
2019-05-06T15:47:52.298Z,6.08
2019-05-06T15:52:54.062Z,4.53
2019-05-06T15:57:56.012Z,5.20
2019-05-06T16:02:58.673Z,4.20
2019-05-06T16:08:00.076Z,4.70
2019-05-06T16:13:03.051Z,5.05
2019-05-06T16:18:04.847Z,4.85
2019-05-06T16:23:24.238Z,4.58
2019-05-06T16:28:25.610Z,5.10
2019-05-06T16:33:26.904Z,6.28
2019-05-06T16:38:28.186Z,6.50
2019-05-06T16:43:48.447Z,6.58
2019-05-06T16:48:52.309Z,7.15
2019-05-06T16:53:52.913Z,6.83
2019-05-06T16:59:03.027Z,7.60
2019-05-06T17:04:14.513Z,7.08
2019-05-06T17:09:20.934Z,7.60
2019-05-06T17:14:18.920Z,6.58
2019-05-06T17:19:20.307Z,7.22
2019-05-06T17:24:22.072Z,7.58
2019-05-06T17:29:46.702Z,7.42
2019-05-06T17:34:52.571Z,7.72
2019-05-06T17:40:07.086Z,7.83
2019-05-06T17:44:56.766Z,7.92
2019-05-06T17:49:58.048Z,8.33
2019-05-06T17:55:02.904Z,8.93
2019-05-06T18:00:05.982Z,6.83
2019-05-06T18:05:07.770Z,11.30
2019-05-06T18:10:09.454Z,7.55
2019-05-06T18:15:13.380Z,9.63
2019-05-06T18:20:35.360Z,7.62
2019-05-06T18:25:36.632Z,7.08
2019-05-06T18:30:39.561Z,7.78
2019-05-06T18:35:42.122Z,8.00
2019-05-06T18:40:46.649Z,8.45
2019-05-06T18:45:48.164Z,10.38
2019-05-06T18:50:52.018Z,10.03
2019-05-06T18:55:57.375Z,10.65
2019-05-06T19:01:03.777Z,10.68
2019-05-06T19:06:09.049Z,11.65
2019-05-06T19:11:14.346Z,9.98
2019-05-06T19:16:16.037Z,10.40
2019-05-06T19:21:17.327Z,11.43
2019-05-06T19:26:18.691Z,10.53
2019-05-06T19:31:22.798Z,11.12
2019-05-06T19:36:26.218Z,10.70
2019-05-06T19:41:27.845Z,12.55
2019-05-06T19:46:30.146Z,13.60
2019-05-06T19:51:33.036Z,12.35
2019-05-06T19:56:34.655Z,12.80
2019-05-06T20:01:36.076Z,13.50
2019-05-06T20:06:42.184Z,13.03
2019-05-06T20:11:44.730Z,13.30
2019-05-06T20:16:47.063Z,12.88
2019-05-06T20:21:52.636Z,13.22
2019-05-06T20:26:54.875Z,13.50
2019-05-06T20:31:56.233Z,12.15
2019-05-06T20:36:57.506Z,10.78
2019-05-06T20:42:02.743Z,9.98
2019-05-06T20:47:22.142Z,11.00
2019-05-06T20:52:23.581Z,10.70
2019-05-06T20:57:25.027Z,10.68
2019-05-06T21:02:26.337Z,16.52
2019-05-06T21:07:28.011Z,29.87
2019-05-06T21:12:31.226Z,21.10
2019-05-06T21:17:32.967Z,13.05
2019-05-06T21:22:34.678Z,14.53
2019-05-06T21:27:36.491Z,22.15
2019-05-06T21:32:39.799Z,15.98
2019-05-06T21:37:42.224Z,15.95
2019-05-06T21:42:45.742Z,18.17
2019-05-06T21:47:47.109Z,31.30
2019-05-06T21:52:48.456Z,21.48
2019-05-06T21:57:49.746Z,14.90
2019-05-06T22:02:52.990Z,13.43
2019-05-06T22:07:54.564Z,15.80
2019-05-06T22:12:56.196Z,31.00
2019-05-06T22:17:57.874Z,20.25
2019-05-06T22:22:59.380Z,16.62
2019-05-06T22:28:02.509Z,14.70
2019-05-06T22:33:03.810Z,14.30
2019-05-06T22:38:05.256Z,13.83
2019-05-06T22:43:06.872Z,14.75
2019-05-06T22:48:08.243Z,14.95
2019-05-06T22:53:09.505Z,15.13
2019-05-06T22:58:11.980Z,14.07
2019-05-06T23:03:15.420Z,15.35
2019-05-06T23:08:17.564Z,15.10
2019-05-06T23:13:18.846Z,15.83
2019-05-06T23:18:22.281Z,13.00
2019-05-06T23:23:24.030Z,14.00
2019-05-06T23:28:27.194Z,14.38
2019-05-06T23:33:28.549Z,15.72
2019-05-06T23:39:27.589Z,14.20
2019-05-06T23:45:25.356Z,14.18
2019-05-06T23:51:23.166Z,14.68
2019-05-06T23:56:43.980Z,13.72
